Latest METARs, TAFs and NOTAMs for FALA


---------------------------------------------------------------------------
	(OBSERVATIONS)
FALA 221400Z 02010KT 9999 FEW035 22/11 Q1019 NOSIG=
FALA 221300Z 03009KT 010V070 9999 FEW030 22/11 Q1020 NOSIG=
FALA 221200Z 36010KT 330V040 9999 SCT025 22/13 Q1020 NOSIG=
---------------------------------------------------------------------------
	(TERMINAL AREA FORECAST)
FALA 221000Z 2212/2312 36005KT 9999 BKN020
    PROB30 TEMPO 2212/2215 -TSRA FEW035CB
    BECMG 2216/2218 VRB04KT SCT030
    BECMG 2220/2222 CAVOK
    BECMG 2300/2302 04005KT BKN010
    BECMG 2304/2305 BKN015
    TX24/2213Z TN15/2304Z=
---------------------------------------------------------------------------
	(NOTAMS)


FALA A0208/18 ATC TRG TAKING PLACE ON SMC 121.65 MHZ. 17 JAN
    08:00 2018 UNTIL 16 APR 15:00 2018 ESTIMATED. CREATED: 17
    JAN 08:02 2018

FALA A0209/18 ATC TRG ON TWR 124.0 MHZ TAKING PLACE. 17 JAN 08:02
    2018 UNTIL 16 APR 15:00 2018 ESTIMATED. CREATED: 17 JAN 08:03
    2018

FALA A0283/18 STEYN CITY CENTRE, DIEPSLOOT, JOHANNESBURG (255821S
    0280044E, 255822S 0280047E): 2X CRANES (155FT AGL) WITH DAY
    AND NGT MARKINGS ERECTED. GND - 4900FT AMSL, 18 JAN 12:00
    2018 UNTIL 17 APR 14:08 2018 ESTIMATED. CREATED: 22 JAN 14:08
    2018

FALA A0416/18 ALONG R511, RIVERGLEN (255823.63S 0280037.35E ,
    255827.47S 0280038.35E, 255833S 0280041E): 3 CRANES (200FT
    AGL) WITH DAY AND NGT MARKINGS ERECTED. GND - 4880FT AMSL,
    31 JAN 09:43 2018 UNTIL 30 APR 12:43 2018 ESTIMATED. CREATED:
    31 JAN 09:43 2018

FALA A0635/18 ATIS 127.65 MHZ U/S. 13 FEB 17:14 2018 UNTIL 28
    FEB 17:00 2018 ESTIMATED. CREATED: 13 FEB 17:14 2018

FALA A0752/18 FALA (255602S 0275530E): CRANE (37M AGL) ERECTED
    NORTH OF TERMINAL BLDG. GND - 4630FT AMSL, 19 FEB 06:00 2018
    UNTIL 16 MAY 14:00 2018 ESTIMATED. CREATED: 19 FEB 09:07
    2018

---------------------------------------------------------------------------